Airport View

Enter AWOS ICAO identifier for current METAR.

ex. KFNL

KSET 201054Z AUTO A3012 RMK AO2 SLPNO PWINO FZRANO $

20 Nov 2019 11:26

Frequency: 118.075

Phone: 636-250-4590

Other Area AWOS: KSTL - KALN - KSUS - KCPS

KSTL 200946Z 2010/2112 11006KT P6SM FEW250 FM201900 15011KT P6SM BKN250 FM202000 15011G17KT P6SM SCT250 FM210600 17011G19KT 6SM -RA OVC040